createdAt,value
2023-05-01T00:01:43.130Z,5.27
2023-05-01T00:04:09.962Z,3.30
2023-05-01T00:06:36.727Z,4.77
2023-05-01T00:09:03.355Z,6.13
2023-05-01T00:11:29.911Z,2.53
2023-05-01T00:13:56.577Z,4.63
2023-05-01T00:16:23.341Z,2.90
2023-05-01T00:18:50.014Z,4.90
2023-05-01T00:21:16.866Z,4.53
2023-05-01T00:23:43.462Z,1.93
2023-05-01T00:26:10.063Z,2.07
2023-05-01T00:28:36.602Z,2.37
2023-05-01T00:31:03.196Z,4.80
2023-05-01T00:33:29.840Z,8.10
2023-05-01T00:35:56.798Z,3.03
2023-05-01T00:38:24.204Z,5.30
2023-05-01T00:40:50.874Z,2.70
2023-05-01T00:43:17.379Z,10.00
2023-05-01T00:45:44.265Z,8.43
2023-05-01T00:48:11.071Z,2.03
2023-05-01T00:50:37.798Z,7.57
2023-05-01T00:53:04.334Z,6.63
2023-05-01T00:55:31.006Z,18.03
2023-05-01T00:57:58.417Z,4.50
2023-05-01T01:00:25.176Z,1.87
2023-05-01T01:02:52.093Z,9.33
2023-05-01T01:05:18.735Z,2.00
2023-05-01T01:07:45.328Z,3.90
2023-05-01T01:10:11.956Z,12.50
2023-05-01T01:12:38.581Z,3.30
2023-05-01T01:15:05.641Z,5.70
2023-05-01T01:17:32.538Z,7.53
2023-05-01T01:19:59.107Z,4.03
2023-05-01T01:22:25.682Z,3.57
2023-05-01T01:24:52.299Z,5.23
2023-05-01T01:27:18.836Z,2.43
2023-05-01T01:29:45.472Z,6.80
2023-05-01T01:32:12.170Z,7.30
2023-05-01T01:34:38.748Z,5.27
2023-05-01T01:37:05.293Z,7.70
2023-05-01T01:39:31.876Z,3.07
2023-05-01T01:41:58.775Z,4.03
2023-05-01T01:44:25.409Z,2.90
2023-05-01T01:46:51.988Z,3.57
2023-05-01T01:49:20.612Z,5.47
2023-05-01T01:51:47.529Z,3.40
2023-05-01T01:54:14.182Z,5.17
2023-05-01T01:56:40.740Z,2.40
2023-05-01T01:59:07.364Z,3.60
2023-05-01T02:01:33.940Z,3.67
2023-05-01T02:04:01.092Z,3.50
2023-05-01T02:06:27.854Z,3.60
2023-05-01T02:08:54.508Z,3.03
2023-05-01T02:11:21.183Z,3.50
2023-05-01T02:13:47.855Z,3.20
2023-05-01T02:16:14.749Z,3.53
2023-05-01T02:18:41.654Z,2.70
2023-05-01T02:21:08.430Z,3.60
2023-05-01T02:23:34.998Z,5.17
2023-05-01T02:26:01.630Z,5.37
2023-05-01T02:28:28.391Z,4.43
2023-05-01T02:30:54.914Z,5.27
2023-05-01T02:33:21.441Z,3.97
2023-05-01T02:35:48.029Z,5.07
2023-05-01T02:38:15.045Z,4.70
2023-05-01T02:40:41.662Z,6.87
2023-05-01T02:43:08.244Z,6.13
2023-05-01T02:45:35.007Z,7.07
2023-05-01T02:48:01.657Z,4.73
2023-05-01T02:50:28.227Z,4.67
2023-05-01T02:52:54.771Z,8.57
2023-05-01T02:55:21.373Z,3.70
2023-05-01T02:57:48.838Z,3.10
2023-05-01T03:00:15.617Z,10.90
2023-05-01T03:02:42.347Z,13.03
2023-05-01T03:05:09.061Z,6.00
2023-05-01T03:07:35.820Z,3.80
2023-05-01T03:10:03.854Z,10.93
2023-05-01T03:12:30.480Z,3.70
2023-05-01T03:14:57.204Z,2.90
2023-05-01T03:17:24.048Z,9.30
2023-05-01T03:19:51.597Z,2.07
2023-05-01T03:22:18.303Z,4.57
2023-05-01T03:24:44.992Z,3.93
2023-05-01T03:27:11.634Z,3.23
2023-05-01T03:29:38.237Z,4.63
2023-05-01T03:32:04.797Z,5.13
2023-05-01T03:34:31.464Z,8.20
2023-05-01T03:36:58.297Z,3.87
2023-05-01T03:39:24.923Z,3.10
2023-05-01T03:41:51.449Z,5.60
2023-05-01T03:44:17.998Z,10.13
2023-05-01T03:46:44.959Z,4.47
2023-05-01T03:49:12.382Z,2.00
2023-05-01T03:51:38.914Z,3.90
2023-05-01T03:54:05.496Z,3.33
2023-05-01T03:56:35.550Z,2.20
2023-05-01T03:59:02.216Z,4.60
2023-05-01T04:01:28.762Z,2.33
2023-05-01T04:03:55.498Z,4.33
2023-05-01T04:06:22.791Z,2.17
2023-05-01T04:08:49.449Z,4.40
2023-05-01T04:11:16.095Z,2.27
2023-05-01T04:13:42.870Z,9.70
2023-05-01T04:16:09.589Z,3.90
2023-05-01T04:18:36.469Z,4.87
2023-05-01T04:21:03.644Z,7.57
2023-05-01T04:23:30.179Z,2.20
2023-05-01T04:25:56.890Z,3.63
2023-05-01T04:28:23.463Z,2.60
2023-05-01T04:30:50.314Z,3.37
2023-05-01T04:33:16.974Z,2.67
2023-05-01T04:35:43.675Z,1.57
2023-05-01T04:38:13.221Z,10.27
2023-05-01T04:40:39.810Z,1.93
2023-05-01T04:43:06.343Z,3.93
2023-05-01T04:45:32.883Z,2.60
2023-05-01T04:47:59.531Z,2.80
2023-05-01T04:50:26.741Z,4.90
2023-05-01T04:52:53.342Z,6.53
2023-05-01T04:55:19.936Z,2.20
2023-05-01T04:57:46.809Z,2.80
2023-05-01T05:00:13.442Z,4.70
2023-05-01T05:02:40.114Z,1.80
2023-05-01T05:05:07.134Z,3.33
2023-05-01T05:07:33.759Z,2.17
2023-05-01T05:10:00.435Z,5.43
2023-05-01T05:12:26.979Z,4.50
2023-05-01T05:14:53.580Z,3.07
2023-05-01T05:17:20.130Z,3.37
2023-05-01T05:19:46.680Z,1.53
2023-05-01T05:22:13.233Z,3.63
2023-05-01T05:24:39.847Z,2.17
2023-05-01T05:27:07.204Z,1.90
2023-05-01T05:29:34.999Z,3.13
2023-05-01T05:32:01.674Z,6.10
2023-05-01T05:34:28.428Z,3.87
2023-05-01T05:36:54.985Z,4.13
2023-05-01T05:39:22.277Z,3.20
2023-05-01T05:41:49.351Z,6.03
2023-05-01T05:44:16.104Z,3.77
2023-05-01T05:46:42.724Z,4.03
2023-05-01T05:49:09.549Z,1.73
2023-05-01T05:51:36.127Z,3.03
2023-05-01T05:54:02.699Z,4.33
2023-05-01T05:56:29.289Z,4.70
2023-05-01T05:59:02.882Z,14.53
2023-05-01T06:01:29.460Z,6.10
2023-05-01T06:03:56.540Z,7.70
2023-05-01T06:06:23.159Z,1.53
2023-05-01T06:08:49.792Z,3.07
2023-05-01T06:11:16.374Z,2.37
2023-05-01T06:13:43.066Z,4.80
2023-05-01T06:16:10.038Z,4.30
2023-05-01T06:18:36.641Z,5.13
2023-05-01T06:21:03.666Z,2.33
2023-05-01T06:23:31.761Z,7.33
2023-05-01T06:25:58.812Z,3.80
2023-05-01T06:28:25.641Z,2.30
2023-05-01T06:30:52.476Z,4.57
2023-05-01T06:33:19.205Z,5.60
2023-05-01T06:35:45.877Z,6.40
2023-05-01T06:38:15.033Z,3.37
2023-05-01T06:41:01.640Z,4.20
2023-05-01T06:43:30.627Z,7.10
2023-05-01T06:45:57.260Z,3.53
2023-05-01T06:48:23.861Z,6.27
2023-05-01T06:50:50.759Z,5.73
2023-05-01T06:53:17.335Z,8.40
2023-05-01T06:55:43.974Z,7.03
2023-05-01T06:58:22.794Z,3.00
2023-05-01T07:00:50.596Z,2.53
2023-05-01T07:03:17.582Z,2.40
2023-05-01T07:05:44.326Z,4.77
2023-05-01T07:08:11.114Z,4.37
2023-05-01T07:10:39.342Z,3.67
2023-05-01T07:13:08.203Z,4.83
2023-05-01T07:15:34.834Z,8.77
2023-05-01T07:18:03.169Z,2.97
2023-05-01T07:20:30.172Z,3.20
2023-05-01T07:22:56.777Z,2.00
2023-05-01T07:25:23.333Z,7.33
2023-05-01T07:27:49.883Z,2.03
2023-05-01T07:30:16.417Z,3.87
2023-05-01T07:32:42.961Z,4.10
2023-05-01T07:35:09.519Z,3.20
2023-05-01T07:37:36.084Z,6.07
2023-05-01T07:40:02.855Z,2.90
2023-05-01T07:42:29.372Z,5.03
2023-05-01T07:44:55.916Z,2.37
2023-05-01T07:47:22.854Z,3.80
2023-05-01T07:49:49.715Z,2.83
2023-05-01T07:52:16.384Z,2.47
2023-05-01T07:54:42.985Z,7.73
2023-05-01T07:57:09.561Z,1.70
2023-05-01T07:59:36.139Z,5.07
2023-05-01T08:02:03.336Z,7.00
2023-05-01T08:04:30.987Z,4.10
2023-05-01T08:06:57.781Z,6.80
2023-05-01T08:09:24.350Z,7.07
2023-05-01T08:11:50.974Z,4.70
2023-05-01T08:14:18.362Z,6.03
2023-05-01T08:16:46.162Z,11.67
2023-05-01T08:19:12.740Z,7.37
2023-05-01T08:21:39.277Z,7.17
2023-05-01T08:24:05.869Z,7.57
2023-05-01T08:26:32.457Z,2.40
2023-05-01T08:28:59.081Z,3.33
2023-05-01T08:31:25.860Z,8.00
2023-05-01T08:33:52.460Z,4.03
2023-05-01T08:36:21.170Z,6.70
2023-05-01T08:38:47.870Z,3.53
2023-05-01T08:41:14.448Z,3.10
2023-05-01T08:43:41.256Z,3.63
2023-05-01T08:46:08.272Z,3.33
2023-05-01T08:48:34.907Z,4.30
2023-05-01T08:51:02.204Z,5.47
2023-05-01T08:53:29.294Z,3.43
2023-05-01T08:55:56.650Z,5.33
2023-05-01T08:58:23.272Z,6.40
2023-05-01T09:00:50.399Z,9.60
2023-05-01T09:03:18.069Z,4.77
2023-05-01T09:05:45.451Z,4.40
2023-05-01T09:08:12.080Z,2.90
2023-05-01T09:10:38.663Z,3.20
2023-05-01T09:13:07.128Z,17.90
2023-05-01T09:15:33.898Z,3.20
2023-05-01T09:18:03.532Z,3.53
2023-05-01T09:20:30.923Z,3.03
2023-05-01T09:22:57.754Z,4.20
2023-05-01T09:25:24.523Z,4.60
2023-05-01T09:27:51.086Z,2.70
2023-05-01T09:30:17.792Z,2.40
2023-05-01T09:32:44.436Z,3.03
2023-05-01T09:35:11.339Z,2.57
2023-05-01T09:37:38.045Z,9.40
2023-05-01T09:40:04.654Z,2.17
2023-05-01T09:42:34.341Z,2.77
2023-05-01T09:45:01.687Z,7.07
2023-05-01T09:47:28.691Z,2.30
2023-05-01T09:49:55.508Z,4.40
2023-05-01T09:52:22.270Z,1.40
2023-05-01T09:54:48.864Z,1.20
2023-05-01T09:57:15.530Z,1.53
2023-05-01T09:59:42.198Z,1.43
2023-05-01T10:02:08.864Z,1.20
2023-05-01T10:04:35.562Z,1.30
2023-05-01T10:07:02.503Z,1.30
2023-05-01T10:09:29.259Z,1.20
2023-05-01T10:11:57.285Z,1.20
2023-05-01T10:14:25.006Z,1.73
2023-05-01T10:16:56.370Z,3.10
2023-05-01T10:19:23.266Z,3.43
2023-05-01T10:21:49.997Z,1.87
2023-05-01T10:24:17.310Z,5.03
2023-05-01T10:26:44.104Z,1.63
2023-05-01T10:29:10.817Z,1.17
2023-05-01T10:31:38.203Z,1.30
2023-05-01T10:34:06.234Z,2.30
2023-05-01T10:36:33.260Z,1.40
2023-05-01T10:39:00.489Z,1.50
2023-05-01T10:41:27.216Z,2.43
2023-05-01T10:43:53.808Z,1.40
2023-05-01T10:46:20.967Z,5.10
2023-05-01T10:48:47.571Z,1.70
2023-05-01T10:51:14.326Z,1.40
2023-05-01T10:53:40.989Z,2.07
2023-05-01T10:56:07.573Z,2.37
2023-05-01T10:58:34.142Z,1.43
2023-05-01T11:01:00.672Z,3.63
2023-05-01T11:03:27.226Z,3.17
2023-05-01T11:05:53.800Z,1.93
2023-05-01T11:08:21.014Z,2.10
2023-05-01T11:10:47.634Z,6.63
2023-05-01T11:13:14.245Z,1.97
2023-05-01T11:15:41.323Z,3.30
2023-05-01T11:18:08.079Z,3.00
2023-05-01T11:20:34.871Z,4.67
2023-05-01T11:23:01.605Z,1.30
2023-05-01T11:25:28.243Z,6.33
2023-05-01T11:27:54.961Z,1.87
2023-05-01T11:30:21.600Z,3.13
2023-05-01T11:32:48.201Z,3.23
2023-05-01T11:35:14.768Z,7.73
2023-05-01T11:37:41.344Z,2.17
2023-05-01T11:40:07.917Z,2.50
2023-05-01T11:42:34.517Z,2.57
2023-05-01T11:45:01.122Z,8.47
2023-05-01T11:47:27.731Z,2.53
2023-05-01T11:49:54.563Z,3.07
2023-05-01T11:52:21.286Z,4.03
2023-05-01T11:54:48.352Z,2.13
2023-05-01T11:57:14.947Z,3.27
2023-05-01T11:59:42.319Z,1.50
2023-05-01T12:02:08.977Z,1.87
2023-05-01T12:04:35.720Z,2.10
2023-05-01T12:07:02.573Z,2.43
2023-05-01T12:09:29.157Z,5.93
2023-05-01T12:11:55.852Z,2.53
2023-05-01T12:14:24.220Z,2.30
2023-05-01T12:16:50.811Z,2.70
2023-05-01T12:19:18.046Z,2.33
2023-05-01T12:21:44.777Z,1.43
2023-05-01T12:24:11.366Z,1.97
2023-05-01T12:26:38.102Z,1.83
2023-05-01T12:29:04.742Z,2.90
2023-05-01T12:31:31.580Z,1.97
2023-05-01T12:33:58.387Z,4.33
2023-05-01T12:36:25.564Z,2.10
2023-05-01T12:38:52.347Z,9.30
2023-05-01T12:41:19.291Z,2.03
2023-05-01T12:43:46.686Z,2.30
2023-05-01T12:46:13.336Z,2.70
2023-05-01T12:48:39.966Z,2.23
2023-05-01T12:51:06.694Z,1.60
2023-05-01T12:53:33.393Z,2.53
2023-05-01T12:56:01.188Z,3.00
2023-05-01T12:58:29.065Z,3.77
2023-05-01T13:00:56.132Z,2.80
2023-05-01T13:03:22.946Z,1.90
2023-05-01T13:05:49.543Z,2.33
2023-05-01T13:08:16.243Z,4.37
2023-05-01T13:10:43.243Z,4.50
2023-05-01T13:13:09.823Z,1.63
2023-05-01T13:15:37.482Z,2.37
2023-05-01T13:18:05.223Z,2.47
2023-05-01T13:20:32.274Z,2.13
2023-05-01T13:22:58.898Z,2.53
2023-05-01T13:25:25.469Z,2.20
2023-05-01T13:27:52.381Z,1.80
2023-05-01T13:30:19.891Z,4.50
2023-05-01T13:32:46.517Z,3.97
2023-05-01T13:35:13.058Z,1.60
2023-05-01T13:37:39.836Z,6.10
2023-05-01T13:40:06.458Z,1.90
2023-05-01T13:42:33.029Z,2.67
2023-05-01T13:44:59.965Z,3.30
2023-05-01T13:47:27.016Z,1.87
2023-05-01T13:49:53.801Z,2.70
2023-05-01T13:52:20.333Z,2.50
2023-05-01T13:54:46.891Z,4.27
2023-05-01T13:57:13.442Z,5.10
2023-05-01T13:59:40.189Z,2.63
2023-05-01T14:02:06.763Z,6.20
2023-05-01T14:04:33.295Z,1.93
2023-05-01T14:07:01.204Z,2.70
2023-05-01T14:09:27.722Z,2.60
2023-05-01T14:11:54.623Z,4.90
2023-05-01T14:14:21.135Z,1.90
2023-05-01T14:16:47.766Z,5.23
2023-05-01T14:19:14.357Z,6.83
2023-05-01T14:21:41.626Z,14.20
2023-05-01T14:24:08.171Z,1.90
2023-05-01T14:26:36.577Z,4.60
2023-05-01T14:29:03.814Z,1.80
2023-05-01T14:31:31.089Z,1.43
2023-05-01T14:33:57.794Z,6.33
2023-05-01T14:36:24.739Z,1.60
2023-05-01T14:38:51.696Z,2.33
2023-05-01T14:41:21.687Z,3.60
2023-05-01T14:43:51.094Z,2.03
2023-05-01T14:46:17.731Z,2.27
2023-05-01T14:48:44.365Z,4.33
2023-05-01T14:51:11.230Z,2.57
2023-05-01T14:53:37.753Z,3.60
2023-05-01T14:56:04.288Z,4.17
2023-05-01T14:58:31.119Z,7.33
2023-05-01T15:00:58.031Z,1.57
2023-05-01T15:03:24.600Z,5.23
2023-05-01T15:05:51.181Z,3.10
2023-05-01T15:08:17.724Z,2.13
2023-05-01T15:10:45.028Z,2.10
2023-05-01T15:13:11.597Z,4.57
2023-05-01T15:15:38.127Z,6.27
2023-05-01T15:18:04.761Z,1.67
2023-05-01T15:20:31.345Z,2.23
2023-05-01T15:22:57.892Z,2.73
2023-05-01T15:25:24.496Z,2.47
2023-05-01T15:27:51.404Z,4.73
2023-05-01T15:30:17.925Z,2.60
2023-05-01T15:32:44.757Z,2.23
2023-05-01T15:35:11.437Z,5.83
2023-05-01T15:37:38.153Z,2.03
2023-05-01T15:40:04.738Z,2.10
2023-05-01T15:42:31.475Z,1.70
2023-05-01T15:44:58.316Z,4.17
2023-05-01T15:47:25.146Z,5.90
2023-05-01T15:49:51.708Z,2.20
2023-05-01T15:52:18.254Z,4.80
2023-05-01T15:54:44.745Z,2.40
2023-05-01T15:57:11.342Z,2.10
2023-05-01T15:59:37.853Z,2.07
2023-05-01T16:02:04.854Z,3.93
2023-05-01T16:04:31.565Z,3.40
2023-05-01T16:06:58.099Z,3.00
2023-05-01T16:09:24.665Z,2.50
2023-05-01T16:11:51.619Z,7.77
2023-05-01T16:14:18.226Z,2.33
2023-05-01T16:16:44.898Z,4.63
2023-05-01T16:19:11.897Z,2.33
2023-05-01T16:21:38.403Z,3.17
2023-05-01T16:24:06.104Z,2.60
2023-05-01T16:26:32.709Z,3.57
2023-05-01T16:28:59.290Z,2.97
2023-05-01T16:31:27.514Z,5.43
2023-05-01T16:33:54.807Z,4.50
2023-05-01T16:36:21.634Z,4.40
2023-05-01T16:38:48.300Z,2.70
2023-05-01T16:41:14.883Z,1.93
2023-05-01T16:43:41.534Z,12.60
2023-05-01T16:46:08.088Z,6.40
2023-05-01T16:48:34.634Z,5.97
2023-05-01T16:51:01.206Z,10.50
2023-05-01T16:53:27.797Z,10.83
2023-05-01T16:55:54.403Z,3.20
2023-05-01T16:58:20.970Z,3.20
2023-05-01T17:00:47.537Z,2.90
2023-05-01T17:03:14.122Z,6.10
2023-05-01T17:05:40.776Z,3.83
2023-05-01T17:08:07.505Z,4.20
2023-05-01T17:10:34.139Z,3.50
2023-05-01T17:13:00.977Z,3.07
2023-05-01T17:15:27.646Z,4.77
2023-05-01T17:17:54.317Z,4.30
2023-05-01T17:20:21.237Z,7.20
2023-05-01T17:22:47.833Z,4.63
2023-05-01T17:25:14.424Z,7.00
2023-05-01T17:27:41.018Z,5.53
2023-05-01T17:30:07.569Z,3.23
2023-05-01T17:32:37.379Z,6.67
2023-05-01T17:35:04.554Z,6.13
2023-05-01T17:37:31.178Z,4.03
2023-05-01T17:39:58.121Z,3.70
2023-05-01T17:42:24.922Z,14.93
2023-05-01T17:44:51.429Z,8.10
2023-05-01T17:47:17.966Z,5.13
2023-05-01T17:49:44.550Z,9.50
2023-05-01T17:52:12.221Z,8.10
2023-05-01T17:54:38.986Z,3.90
2023-05-01T17:57:05.651Z,11.47
2023-05-01T17:59:32.387Z,5.17
2023-05-01T18:01:59.256Z,17.73
2023-05-01T18:04:26.249Z,8.10
2023-05-01T18:06:54.093Z,18.90
2023-05-01T18:09:20.882Z,6.13
2023-05-01T18:11:47.494Z,18.50
2023-05-01T18:14:14.575Z,4.23
2023-05-01T18:16:41.981Z,4.50
2023-05-01T18:19:08.639Z,6.20
2023-05-01T18:21:35.454Z,8.67
2023-05-01T18:24:05.314Z,10.17
2023-05-01T18:26:32.860Z,6.23
2023-05-01T18:28:59.620Z,5.90
2023-05-01T18:31:26.765Z,7.03
2023-05-01T18:33:53.899Z,4.70
2023-05-01T18:36:21.019Z,7.13
2023-05-01T18:38:48.088Z,6.60
2023-05-01T18:41:14.743Z,4.30
2023-05-01T18:43:41.318Z,5.00
2023-05-01T18:46:07.952Z,10.83
2023-05-01T18:48:34.486Z,5.77
2023-05-01T18:51:08.433Z,6.33
2023-05-01T18:53:36.054Z,8.10
2023-05-01T18:56:02.666Z,5.93
2023-05-01T18:58:29.253Z,5.77
2023-05-01T19:00:55.914Z,12.97
2023-05-01T19:03:22.618Z,5.43
2023-05-01T19:05:49.408Z,6.00
2023-05-01T19:08:15.933Z,9.20
2023-05-01T19:10:42.498Z,4.90
2023-05-01T19:13:09.097Z,4.90
2023-05-01T19:15:36.248Z,3.83
2023-05-01T19:18:02.861Z,7.17
2023-05-01T19:20:29.513Z,6.80
2023-05-01T19:22:56.050Z,8.67
2023-05-01T19:25:22.589Z,12.10
2023-05-01T19:27:50.913Z,5.13
2023-05-01T19:30:17.765Z,7.57
2023-05-01T19:32:44.294Z,6.30
2023-05-01T19:35:11.578Z,6.57
2023-05-01T19:37:38.208Z,5.33
2023-05-01T19:40:04.817Z,5.67
2023-05-01T19:42:31.583Z,4.77
2023-05-01T19:44:58.229Z,3.40
2023-05-01T19:47:24.807Z,4.93
2023-05-01T19:49:51.355Z,3.23
2023-05-01T19:52:19.423Z,5.70
2023-05-01T19:54:45.979Z,3.43
2023-05-01T19:57:12.929Z,4.40
2023-05-01T19:59:41.166Z,3.30
2023-05-01T20:02:07.933Z,8.60
2023-05-01T20:04:34.585Z,4.63
2023-05-01T20:07:02.733Z,4.70
2023-05-01T20:09:29.283Z,3.80
2023-05-01T20:11:55.866Z,5.30
2023-05-01T20:14:22.385Z,4.07
2023-05-01T20:16:50.420Z,4.77
2023-05-01T20:19:17.727Z,5.07
2023-05-01T20:21:44.393Z,4.83
2023-05-01T20:24:11.240Z,4.80
2023-05-01T20:26:37.754Z,8.20
2023-05-01T20:29:04.289Z,4.70
2023-05-01T20:31:31.378Z,3.83
2023-05-01T20:33:58.015Z,6.73
2023-05-01T20:36:25.667Z,6.57
2023-05-01T20:38:53.134Z,7.20
2023-05-01T20:41:19.793Z,8.03
2023-05-01T20:43:46.401Z,6.33
2023-05-01T20:46:13.414Z,12.07
2023-05-01T20:48:40.063Z,8.90
2023-05-01T20:51:06.646Z,14.60
2023-05-01T20:53:33.351Z,13.63
2023-05-01T20:56:00.026Z,4.57
2023-05-01T20:58:26.538Z,6.80
2023-05-01T21:00:53.252Z,10.50
2023-05-01T21:03:19.840Z,15.03
2023-05-01T21:05:46.449Z,15.80
2023-05-01T21:08:13.063Z,7.97
2023-05-01T21:10:39.567Z,8.50
2023-05-01T21:13:06.291Z,7.53
2023-05-01T21:15:33.846Z,6.90
2023-05-01T21:18:00.774Z,13.97
2023-05-01T21:20:27.687Z,8.73
2023-05-01T21:22:54.234Z,10.33
2023-05-01T21:25:20.810Z,6.43
2023-05-01T21:27:47.379Z,6.50
2023-05-01T21:30:14.874Z,11.43
2023-05-01T21:32:41.526Z,10.53
2023-05-01T21:35:08.645Z,7.70
2023-05-01T21:37:35.210Z,10.10
2023-05-01T21:40:02.089Z,8.87
2023-05-01T21:42:28.795Z,10.63
2023-05-01T21:44:55.375Z,16.90
2023-05-01T21:47:21.981Z,10.50
2023-05-01T21:49:48.586Z,9.33
2023-05-01T21:52:15.329Z,11.53
2023-05-01T21:54:41.899Z,16.97
2023-05-01T21:57:08.444Z,10.10
2023-05-01T21:59:34.980Z,14.10
2023-05-01T22:02:01.517Z,10.33
2023-05-01T22:04:28.005Z,10.90
2023-05-01T22:06:54.885Z,13.07
2023-05-01T22:09:21.430Z,10.60
2023-05-01T22:11:47.964Z,12.23
2023-05-01T22:14:15.677Z,10.50
2023-05-01T22:16:42.279Z,8.77
2023-05-01T22:19:08.807Z,11.43
2023-05-01T22:21:35.481Z,20.87
2023-05-01T22:24:02.862Z,15.43
2023-05-01T22:26:29.668Z,18.37
2023-05-01T22:28:56.545Z,12.30
2023-05-01T22:31:23.442Z,14.80
2023-05-01T22:33:50.137Z,16.63
2023-05-01T22:36:16.667Z,20.30
2023-05-01T22:38:43.228Z,20.13
2023-05-01T22:41:10.078Z,12.80
2023-05-01T22:43:36.606Z,16.93
2023-05-01T22:46:05.772Z,15.00
2023-05-01T22:48:32.474Z,19.57
2023-05-01T22:50:59.437Z,13.67
2023-05-01T22:53:27.391Z,11.97
2023-05-01T22:55:54.341Z,16.67
2023-05-01T22:58:21.024Z,12.60
2023-05-01T23:00:47.532Z,13.83
2023-05-01T23:03:15.334Z,11.23
2023-05-01T23:05:42.003Z,23.80
2023-05-01T23:08:08.484Z,19.80
2023-05-01T23:10:35.129Z,17.73
2023-05-01T23:13:01.739Z,12.23
2023-05-01T23:15:28.293Z,14.80
2023-05-01T23:17:55.034Z,16.47
2023-05-01T23:20:22.493Z,19.60
2023-05-01T23:22:49.194Z,21.90
2023-05-01T23:25:15.927Z,14.40
2023-05-01T23:27:42.904Z,20.00
2023-05-01T23:30:09.442Z,14.43
2023-05-01T23:32:36.116Z,16.53
2023-05-01T23:35:02.853Z,16.33
2023-05-01T23:37:29.434Z,16.57
2023-05-01T23:39:58.608Z,22.00
2023-05-01T23:42:25.785Z,20.90
2023-05-01T23:44:52.336Z,25.90
2023-05-01T23:47:19.223Z,36.97
2023-05-01T23:49:45.820Z,28.93
2023-05-01T23:52:12.565Z,19.40
2023-05-01T23:54:39.188Z,20.40
2023-05-01T23:57:05.715Z,29.93
2023-05-01T23:59:32.301Z,23.57
